»·PEaware :: SKW5202 KCPR-KDEN

SKW5202 :: KCPR-KDEN

FLIGHT INFORMATION

Flight Status: Arrived
Operator:
SkyWest Airlines
More flights by this operator :: More flights under this callsign
Pilot: Anonymous 16342 (16342)
Aircraft: CANADAIR CL-600 CRJ-700
(CRJ7)
More flights by this aircraft type
Origin: KCPR Natrona Co Intl
United States
Destination: KDEN Denver Intl
United States
More flights between these airports :: More routes between these airports
Route: +DDY OPPEE TSHNR3
File this flight plan on PilotEdge
Remarks:
Altitude:
(Current/Filed)
27,000ft
Speed:
(Current/Filed)
467kts
Departed: 04-Sep-19 07:33 AM
Arrived: 04-Sep-19 08:16 AM
Distance/Time
Traveled:
200nm/0:43
Distance/Time
To Go:
Arrived

Flight Plot

Page will automatically refresh every two minutes.

Flight plan parsing failed; only flown route is shown


Map Options




Map Legend


Flown Route
Filed Route
Departure Airport
Arrival Airport
Navaid (VOR, NDB)
Fix

Horizontal Profiles

Position Reports

Time Latitude Longitude Heading Altitude Ground
Speed
04-Sep-19 07:11 42.898692 -106.463767 134 5354ft 0kts
04-Sep-19 07:12 42.898692 -106.463767 134 5354ft 0kts
04-Sep-19 07:13 42.898692 -106.463767 134 5354ft 0kts
04-Sep-19 07:14 42.898692 -106.463767 134 5354ft 0kts
04-Sep-19 07:15 42.898692 -106.463767 134 5354ft 0kts
04-Sep-19 07:16 42.898692 -106.463767 134 5354ft 0kts
04-Sep-19 07:17 42.898692 -106.463767 134 5354ft 0kts
04-Sep-19 07:18 42.898692 -106.463767 134 5354ft 0kts
04-Sep-19 07:19 42.898692 -106.463767 134 5354ft 0kts
04-Sep-19 07:20 42.898692 -106.463767 134 5354ft 0kts
04-Sep-19 07:21 42.898850 -106.463994 133 5354ft 2kts
04-Sep-19 07:22 42.899398 -106.464291 201 5354ft 2kts
04-Sep-19 07:23 42.899587 -106.464096 223 5354ft 0kts
04-Sep-19 07:24 42.899587 -106.464096 223 5354ft 0kts
04-Sep-19 07:25 42.899587 -106.464096 223 5354ft 0kts
04-Sep-19 07:26 42.899587 -106.464096 223 5354ft 0kts
04-Sep-19 07:27 42.898621 -106.465359 223 5354ft 7kts
04-Sep-19 07:28 42.896997 -106.467484 223 5354ft 10kts
04-Sep-19 07:29 42.895034 -106.470057 223 5354ft 9kts
04-Sep-19 07:30 42.893154 -106.472525 223 5354ft 12kts
04-Sep-19 07:31 42.892839 -106.474023 311 5354ft 6kts
04-Sep-19 07:32 42.900455 -106.465588 43 5354ft 129kts
04-Sep-19 07:33 42.933133 -106.418712 46 7700ft 168kts
04-Sep-19 07:34 42.970345 -106.367925 49 8725ft 216kts
04-Sep-19 07:35 42.942906 -106.300161 170 10154ft 248kts
04-Sep-19 07:36 42.873899 -106.302587 185 12631ft 251kts
04-Sep-19 07:37 42.801334 -106.307759 187 14659ft 274kts
04-Sep-19 07:38 42.722743 -106.313820 187 16733ft 288kts
04-Sep-19 07:39 42.640657 -106.316572 184 18662ft 301kts
04-Sep-19 07:40 42.555428 -106.310677 182 20363ft 311kts
04-Sep-19 07:41 42.467684 -106.305527 182 21953ft 320kts
04-Sep-19 07:42 42.411864 -106.301963 181 22869ft 326kts
04-Sep-19 07:43 42.327054 -106.296736 181 24155ft 334kts
04-Sep-19 07:44 42.233348 -106.291146 181 25540ft 341kts
04-Sep-19 07:45 42.137438 -106.285398 181 26803ft 348kts
04-Sep-19 07:46 42.037660 -106.279371 181 27376ft 377kts
04-Sep-19 07:47 41.925970 -106.272972 181 27392ft 427kts
04-Sep-19 07:48 41.800045 -106.265267 180 27399ft 464kts
04-Sep-19 07:49 41.672549 -106.257710 180 27402ft 456kts
04-Sep-19 07:50 41.545607 -106.250294 180 27403ft 453kts
04-Sep-19 07:51 41.421017 -106.234561 167 27409ft 454kts
04-Sep-19 07:52 41.302280 -106.175411 165 27430ft 452kts
04-Sep-19 07:53 41.182154 -106.126765 164 27457ft 450kts
04-Sep-19 07:54 41.066783 -106.069363 158 27203ft 425kts
04-Sep-19 07:55 40.961808 -106.007346 160 24769ft 408kts
04-Sep-19 07:56 40.869289 -105.925343 131 23406ft 408kts
04-Sep-19 07:57 40.805860 -105.803251 127 21973ft 397kts
04-Sep-19 07:58 40.741024 -105.687554 127 20050ft 390kts
04-Sep-19 07:59 40.678411 -105.573910 127 18802ft 378kts
04-Sep-19 08:00 40.616859 -105.462980 127 17563ft 371kts
04-Sep-19 08:01 40.556790 -105.354499 127 17054ft 358kts
04-Sep-19 08:02 40.500586 -105.251681 128 17474ft 322kts
04-Sep-19 08:03 40.426658 -105.185516 156 16890ft 323kts
04-Sep-19 08:04 40.348487 -105.121190 147 16257ft 336kts
04-Sep-19 08:05 40.305190 -105.014894 109 15783ft 338kts
04-Sep-19 08:06 40.279642 -104.906503 108 14350ft 297kts
04-Sep-19 08:07 40.236662 -104.821841 137 12556ft 273kts
04-Sep-19 08:08 40.183969 -104.752015 137 10756ft 268kts
04-Sep-19 08:09 40.125694 -104.700956 158 9070ft 242kts
04-Sep-19 08:10 40.067708 -104.680401 196 7277ft 223kts
04-Sep-19 08:11 40.009262 -104.683408 181 6292ft 218kts
04-Sep-19 08:12 39.954863 -104.685743 180 6038ft 170kts
04-Sep-19 08:13 39.909561 -104.686299 182 5694ft 149kts
04-Sep-19 08:14 39.877428 -104.687034 181 5438ft 52kts
04-Sep-19 08:15 39.872646 -104.685921 146 5438ft 3kts
04-Sep-19 08:16 39.870793 -104.683862 172 5438ft 10kts
04-Sep-19 08:17 39.866211 -104.683860 181 5438ft 17kts
04-Sep-19 08:18 39.861836 -104.683927 179 5438ft 10kts
04-Sep-19 08:19 39.858361 -104.683978 180 5438ft 14kts
04-Sep-19 08:20 39.855991 -104.682390 91 5438ft 11kts
04-Sep-19 08:21 39.855957 -104.678856 90 5438ft 8kts
04-Sep-19 08:22 39.855237 -104.675283 89 5438ft 12kts
04-Sep-19 08:23 39.855071 -104.672277 158 5438ft 5kts
04-Sep-19 08:24 39.854491 -104.672345 186 5438ft 0kts
04-Sep-19 08:25 39.854491 -104.672345 186 5438ft 0kts
04-Sep-19 08:26 39.854491 -104.672345 186 5438ft 0kts

Navigation Log

Ident Type
Flight plan parsing failed, navigation log unavailable